Time;durP1;ratioP1;P1;durP2;ratioP2;P2;SDS_P1;SDS_P2;PMS_P1;PMS_P2;Temp;Humidity;BMP_temperature;BMP_pressure;BME280_temperature;BME280_humidity;BME280_pressure;Samples;Min_cycle;Max_cycle;Signal;HPM_P1;HPM_P2
2022/04/03 00:02:14;;;;;;;2.13;0.88;;;;;;;7.31;56.90;92827.50;5106030;28;20035;-71
2022/04/03 00:04:39;;;;;;;3.90;1.02;;;;;;;7.15;58.60;92827.22;5106036;28;20028;-71
2022/04/03 00:07:05;;;;;;;2.45;0.98;;;;;;;6.69;60.98;92818.88;5105820;28;20065;-71
2022/04/03 00:09:30;;;;;;;2.47;0.88;;;;;;;6.48;62.24;92805.53;5105610;28;20043;-70
2022/04/03 00:11:56;;;;;;;1.67;1.00;;;;;;;6.32;64.14;92797.28;5105823;28;20325;-71
2022/04/03 00:14:21;;;;;;;3.05;1.05;;;;;;;6.22;65.39;92785.13;5105519;28;20023;-70
2022/04/03 00:16:47;;;;;;;4.93;1.05;;;;;;;6.17;66.90;92782.66;5105682;28;20024;-71
2022/04/03 00:19:12;;;;;;;3.28;1.35;;;;;;;6.21;68.12;92791.53;5105753;28;20069;-70
2022/04/03 00:21:38;;;;;;;5.20;1.23;;;;;;;6.19;68.64;92809.56;5105470;28;20222;-71
2022/04/03 00:24:04;;;;;;;2.58;1.58;;;;;;;5.98;64.36;92782.97;5105601;28;20019;-70
2022/04/03 00:26:30;;;;;;;3.20;1.27;;;;;;;6.09;65.34;92791.38;5105428;28;20082;-71
2022/04/03 00:28:56;;;;;;;5.57;2.17;;;;;;;6.07;63.47;92790.91;5105083;28;20322;-71
2022/04/03 00:31:22;;;;;;;5.82;3.20;;;;;;;6.15;64.16;92776.88;5105502;28;20030;-71
2022/04/03 00:33:48;;;;;;;5.05;2.35;;;;;;;6.22;62.05;92782.47;5105702;28;20270;-71
2022/04/03 00:36:13;;;;;;;5.10;2.35;;;;;;;6.20;60.24;92768.78;5105233;28;20020;-71
2022/04/03 00:38:39;;;;;;;4.25;1.80;;;;;;;6.24;58.53;92755.72;5105179;28;20030;-71
2022/04/03 00:41:05;;;;;;;3.28;1.35;;;;;;;6.35;59.28;92775.50;5105238;28;20091;-71
2022/04/03 00:43:30;;;;;;;4.90;1.77;;;;;;;6.37;60.34;92785.75;5105102;28;20016;-72
2022/04/03 00:45:59;;;;;;;5.35;1.90;;;;;;;6.40;60.19;92793.06;5105251;28;20058;-71
2022/04/03 00:48:24;;;;;;;3.05;1.60;;;;;;;6.31;60.83;92779.06;5105245;28;20243;-72
2022/04/03 00:50:50;;;;;;;4.63;1.55;;;;;;;6.34;58.79;92775.78;5104198;28;20031;-72
2022/04/03 00:53:16;;;;;;;1.70;1.05;;;;;;;6.44;57.54;92778.13;5105183;28;20026;-72
2022/04/03 00:55:43;;;;;;;5.93;2.60;;;;;;;6.43;57.16;92776.56;5104904;28;20052;-72
2022/04/03 00:58:12;;;;;;;3.00;1.20;;;;;;;6.52;57.63;92777.34;5104744;28;20043;-71
2022/04/03 01:00:38;;;;;;;1.85;1.17;;;;;;;6.61;57.56;92787.91;5104579;28;20024;-72
2022/04/03 01:03:04;;;;;;;5.25;1.25;;;;;;;6.63;56.90;92770.63;5104708;28;20225;-72
2022/04/03 01:05:30;;;;;;;3.90;1.52;;;;;;;6.61;55.31;92780.75;5104892;28;20131;-71
2022/04/03 01:07:56;;;;;;;4.25;1.65;;;;;;;6.58;56.19;92783.25;5104772;28;20219;-71
2022/04/03 01:10:22;;;;;;;5.82;1.60;;;;;;;6.68;56.89;92777.63;5104574;28;20062;-72
2022/04/03 01:12:47;;;;;;;5.68;1.80;;;;;;;6.59;55.28;92777.66;5104714;28;20065;-71
2022/04/03 01:15:17;;;;;;;4.45;1.58;;;;;;;6.57;56.14;92785.13;5104627;28;20086;-72
2022/04/03 01:17:43;;;;;;;2.42;1.40;;;;;;;6.55;55.66;92782.00;5104465;28;20020;-72
2022/04/03 01:20:10;;;;;;;4.25;1.38;;;;;;;6.63;57.67;92802.41;5104547;28;20051;-72
2022/04/03 01:22:36;;;;;;;5.00;1.55;;;;;;;6.60;58.27;92803.03;5104523;28;20020;-72
2022/04/03 01:25:03;;;;;;;5.60;1.60;;;;;;;6.67;59.42;92794.59;5104352;28;20024;-72
2022/04/03 01:27:28;;;;;;;3.95;1.27;;;;;;;6.51;57.16;92798.81;5104308;28;20032;-72
2022/04/03 01:29:54;;;;;;;7.57;1.63;;;;;;;6.17;57.79;92790.59;5104362;28;20060;-72
2022/04/03 01:32:22;;;;;;;3.95;1.30;;;;;;;6.09;59.12;92803.81;5103983;28;20027;-72
2022/04/03 01:34:47;;;;;;;3.80;1.23;;;;;;;5.89;58.96;92815.75;5104472;28;20326;-72
2022/04/03 01:37:13;;;;;;;5.88;1.73;;;;;;;5.74;60.06;92806.34;5104250;28;20027;-72
2022/04/03 01:39:38;;;;;;;4.25;1.10;;;;;;;5.65;59.17;92816.16;5104017;28;20283;-71
2022/04/03 01:42:04;;;;;;;3.95;1.25;;;;;;;5.57;59.60;92815.81;5104328;28;20020;-71
2022/04/03 01:44:30;;;;;;;4.68;1.30;;;;;;;5.59;60.97;92832.13;5103071;28;20024;-72
2022/04/03 01:46:56;;;;;;;3.92;1.30;;;;;;;5.55;59.98;92827.78;5103738;28;20028;-71
2022/04/03 01:49:21;;;;;;;3.72;1.23;;;;;;;5.60;60.98;92819.72;5103988;28;20230;-72
2022/04/03 01:51:46;;;;;;;4.18;1.85;;;;;;;5.59;59.80;92818.16;5104211;28;20218;-72
2022/04/03 01:54:12;;;;;;;1.83;1.05;;;;;;;5.62;59.46;92814.91;5103665;28;20069;-71
2022/04/03 01:56:38;;;;;;;2.25;0.88;;;;;;;5.67;59.03;92798.88;5103874;28;20047;-72
2022/04/03 01:59:04;;;;;;;4.30;1.00;;;;;;;5.68;59.49;92805.75;5103636;28;20027;-72
2022/04/03 02:01:31;;;;;;;3.92;1.20;;;;;;;5.68;60.22;92797.00;5103791;28;20023;-72
2022/04/03 02:03:57;;;;;;;4.38;1.02;;;;;;;5.71;60.26;92814.91;5102701;28;20083;-72
2022/04/03 02:06:22;;;;;;;4.22;1.02;;;;;;;5.69;60.08;92798.59;5103496;28;20031;-71
2022/04/03 02:08:48;;;;;;;2.38;1.30;;;;;;;5.60;62.15;92806.50;5103645;28;20016;-72
2022/04/03 02:11:15;;;;;;;4.93;1.02;;;;;;;5.53;60.99;92788.44;5103587;28;20083;-72
2022/04/03 02:13:40;;;;;;;3.95;1.20;;;;;;;5.54;61.05;92778.66;5103263;28;20016;-72
2022/04/03 02:16:06;;;;;;;8.07;0.98;;;;;;;5.62;61.95;92796.41;5103622;28;20243;-72
2022/04/03 02:18:31;;;;;;;5.28;1.35;;;;;;;5.61;61.07;92782.38;5102223;28;20214;-72
2022/04/03 02:20:57;;;;;;;7.28;2.15;;;;;;;5.58;61.45;92783.00;5103327;28;20061;-71
2022/04/03 02:23:22;;;;;;;6.03;2.05;;;;;;;5.50;61.95;92790.94;5103393;28;20191;-72
2022/04/03 02:25:49;;;;;;;4.30;1.30;;;;;;;5.36;61.30;92762.75;5103352;28;20019;-72
2022/04/03 02:28:16;;;;;;;3.25;1.05;;;;;;;5.41;61.93;92777.66;5103324;28;20043;-72
2022/04/03 02:30:41;;;;;;;9.70;1.58;;;;;;;5.51;62.05;92779.25;5102031;28;20402;-72
2022/04/03 02:33:07;;;;;;;6.90;1.92;;;;;;;5.54;62.31;92791.88;5103230;28;20024;-72
2022/04/03 02:35:32;;;;;;;3.40;1.15;;;;;;;5.59;62.74;92797.78;5102940;28;20012;-72
2022/04/03 02:37:58;;;;;;;3.92;1.50;;;;;;;5.62;61.98;92799.03;5103070;28;20245;-72
2022/04/03 02:40:23;;;;;;;5.68;1.63;;;;;;;5.63;62.55;92801.34;5103116;28;20015;-72
2022/04/03 02:42:49;;;;;;;3.78;1.70;;;;;;;5.53;62.15;92791.06;5103054;28;20043;-72
2022/04/03 02:45:15;;;;;;;3.60;1.65;;;;;;;5.56;62.98;92802.91;5103226;28;20016;-71
2022/04/03 02:47:47;;;;;;;5.47;1.88;;;;;;;5.56;62.52;92797.63;5102792;28;20027;-71
2022/04/03 02:50:15;;;;;;;1.90;0.90;;;;;;;5.53;59.32;92795.59;5102855;28;20028;-71
2022/04/03 02:52:40;;;;;;;1.85;0.80;;;;;;;5.59;56.98;92804.94;5102934;28;20084;-71
2022/04/03 02:55:06;;;;;;;1.50;0.80;;;;;;;5.63;56.76;92793.44;5102700;28;20040;-71
2022/04/03 02:57:31;;;;;;;0.50;0.47;;;;;;;5.67;56.77;92803.41;5102854;28;20077;-70
2022/04/03 02:59:58;;;;;;;1.45;0.77;;;;;;;5.67;54.75;92793.59;5102932;28;20024;-70
2022/04/03 03:02:23;;;;;;;3.63;0.65;;;;;;;5.81;56.56;92799.53;5102568;28;20031;-70
2022/04/03 03:04:48;;;;;;;2.55;0.85;;;;;;;5.89;56.63;92802.50;5102984;28;20024;-71
2022/04/03 03:07:14;;;;;;;1.52;0.57;;;;;;;5.90;54.38;92793.47;5102677;28;20039;-70
2022/04/03 03:09:40;;;;;;;4.68;0.88;;;;;;;5.96;54.20;92798.38;5102568;28;20027;-70
2022/04/03 03:12:06;;;;;;;3.40;0.88;;;;;;;5.90;54.27;92798.78;5102775;28;20027;-71
2022/04/03 03:14:32;;;;;;;1.67;0.70;;;;;;;5.85;53.84;92801.56;5103127;28;20333;-71
2022/04/03 03:16:57;;;;;;;0.85;0.35;;;;;;;5.98;53.75;92798.84;5106706;28;20030;-71
2022/04/03 03:19:23;;;;;;;2.58;0.73;;;;;;;5.93;53.69;92819.31;5106963;28;20015;-71
2022/04/03 03:21:48;;;;;;;1.45;0.50;;;;;;;5.86;52.59;92789.91;5105632;28;20221;-71
2022/04/03 03:24:14;;;;;;;0.93;0.52;;;;;;;5.88;53.33;92793.00;5106616;28;20035;-71
2022/04/03 03:26:39;;;;;;;2.15;0.52;;;;;;;5.87;53.23;92792.25;5106732;28;20098;-71
2022/04/03 03:29:05;;;;;;;1.48;0.63;;;;;;;5.82;53.50;92789.72;5106676;28;20020;-71
2022/04/03 03:31:31;;;;;;;1.45;0.70;;;;;;;5.56;54.61;92803.69;5106374;28;20076;-71
2022/04/03 03:33:57;;;;;;;0.77;0.60;;;;;;;5.55;53.24;92791.53;5106604;28;20019;-71
2022/04/03 03:36:22;;;;;;;4.28;0.52;;;;;;;5.53;53.03;92795.59;5106445;28;20046;-71
2022/04/03 03:38:48;;;;;;;0.40;0.40;;;;;;;5.45;50.14;92785.78;5106560;28;20020;-71
2022/04/03 03:41:16;;;;;;;0.80;0.40;;;;;;;5.49;51.38;92805.22;5106630;28;20091;-71
2022/04/03 03:43:42;;;;;;;4.47;0.60;;;;;;;5.48;51.63;92806.31;5106157;28;20107;-71
2022/04/03 03:46:08;;;;;;;0.50;0.40;;;;;;;5.45;51.15;92809.56;5106300;28;20222;-71
2022/04/03 03:48:34;;;;;;;1.20;0.65;;;;;;;5.52;52.68;92812.53;5106232;28;20044;-71
2022/04/03 03:51:00;;;;;;;0.50;0.40;;;;;;;5.45;51.81;92820.13;5106098;28;20046;-71
2022/04/03 03:53:25;;;;;;;4.57;0.40;;;;;;;5.38;51.41;92823.22;5106324;28;20024;-71
2022/04/03 03:55:51;;;;;;;0.57;0.38;;;;;;;5.39;50.49;92815.00;5106131;28;20146;-71
2022/04/03 03:58:16;;;;;;;2.35;0.50;;;;;;;5.48;49.88;92832.75;5106179;28;20356;-71
2022/04/03 04:00:42;;;;;;;2.67;0.50;;;;;;;5.51;51.54;92837.41;5105939;28;20027;-71
2022/04/03 04:03:07;;;;;;;0.38;0.38;;;;;;;5.55;51.93;92836.47;5106068;28;20020;-71
2022/04/03 04:05:33;;;;;;;1.85;0.40;;;;;;;5.41;49.26;92841.91;5105799;28;20097;-71
2022/04/03 04:07:58;;;;;;;2.40;0.55;;;;;;;5.53;50.20;92836.00;5105987;28;20020;-71
2022/04/03 04:10:23;;;;;;;2.17;0.50;;;;;;;5.48;50.30;92848.59;5105784;28;20024;-71
2022/04/03 04:12:49;;;;;;;1.75;0.45;;;;;;;5.48;50.21;92856.53;5105908;28;20091;-71
2022/04/03 04:15:15;;;;;;;0.80;0.40;;;;;;;5.53;50.71;92872.25;5105790;28;20040;-71
2022/04/03 04:17:46;;;;;;;2.35;0.50;;;;;;;5.54;51.12;92871.16;5105793;28;20253;-71
2022/04/03 04:20:16;;;;;;;0.20;0.20;;;;;;;5.53;50.22;92867.72;5105622;28;20042;-71
2022/04/03 04:22:44;;;;;;;0.28;0.28;;;;;;;5.56;50.38;92887.50;5105643;28;20034;-71
2022/04/03 04:25:11;;;;;;;1.42;0.32;;;;;;;5.54;50.11;92879.09;5104880;28;20040;-71
2022/04/03 04:27:37;;;;;;;0.57;0.43;;;;;;;5.59;49.67;92886.88;5105061;28;20028;-71
2022/04/03 04:30:04;;;;;;;0.60;0.40;;;;;;;5.59;50.64;92884.22;5105579;28;20019;-71
2022/04/03 04:32:29;;;;;;;0.45;0.45;;;;;;;5.57;50.47;92895.09;5105461;28;20028;-71
2022/04/03 04:34:55;;;;;;;0.82;0.40;;;;;;;5.58;50.56;92890.63;5105392;28;20019;-71
2022/04/03 04:37:20;;;;;;;0.30;0.30;;;;;;;5.63;50.18;92908.97;5105545;28;20040;-71
2022/04/03 04:39:46;;;;;;;1.48;0.60;;;;;;;5.60;50.05;92899.03;5105378;28;20027;-71
2022/04/03 04:42:13;;;;;;;1.65;0.73;;;;;;;5.58;50.82;92901.97;5104149;28;20035;-71
2022/04/03 04:44:39;;;;;;;0.50;0.38;;;;;;;5.63;50.81;92899.16;5105108;28;20016;-71
2022/04/03 04:47:05;;;;;;;0.45;0.32;;;;;;;5.67;51.42;92919.72;5105020;28;20244;-71
2022/04/03 04:49:30;;;;;;;0.55;0.50;;;;;;;5.70;50.42;92908.53;5105112;28;20024;-71
2022/04/03 04:51:56;;;;;;;0.43;0.40;;;;;;;5.63;50.29;92898.41;5105118;28;20083;-71
2022/04/03 04:54:21;;;;;;;1.48;1.38;;;;;;;5.67;49.93;92901.22;5104803;28;20024;-71
2022/04/03 04:56:46;;;;;;;0.90;0.47;;;;;;;5.62;50.54;92904.78;5105224;28;20276;-71
2022/04/03 04:59:12;;;;;;;0.68;0.40;;;;;;;5.70;50.90;92906.69;5105107;28;20107;-71
2022/04/03 05:01:38;;;;;;;0.70;0.50;;;;;;;5.76;50.04;92908.09;5104733;28;20035;-71
2022/04/03 05:04:04;;;;;;;0.85;0.40;;;;;;;5.82;49.31;92920.09;5104753;28;20091;-71
2022/04/03 05:06:31;;;;;;;0.30;0.30;;;;;;;5.82;47.43;92924.59;5104625;28;20042;-71
2022/04/03 05:08:57;;;;;;;3.60;1.25;;;;;;;5.83;48.70;92929.59;5104718;28;20028;-71
2022/04/03 05:11:23;;;;;;;1.00;0.45;;;;;;;5.82;49.43;92933.31;5104730;28;20041;-71
2022/04/03 05:13:48;;;;;;;1.27;0.63;;;;;;;5.83;49.27;92934.88;5104742;28;20091;-71
2022/04/03 05:16:14;;;;;;;0.30;0.30;;;;;;;5.81;48.79;92931.75;5104575;28;20016;-71
2022/04/03 05:18:40;;;;;;;3.03;0.40;;;;;;;5.76;49.26;92945.13;5104349;28;20051;-71
2022/04/03 05:21:07;;;;;;;0.45;0.38;;;;;;;5.65;49.36;92946.47;5104461;28;20048;-71
2022/04/03 05:23:33;;;;;;;0.55;0.40;;;;;;;5.61;49.81;92941.00;5104514;28;20066;-71
2022/04/03 05:25:58;;;;;;;0.80;0.60;;;;;;;5.57;48.32;92941.91;5104303;28;20028;-71
2022/04/03 05:28:24;;;;;;;2.05;0.75;;;;;;;5.49;50.12;92954.00;5104099;28;20035;-71
2022/04/03 05:30:50;;;;;;;1.10;0.50;;;;;;;5.41;49.94;92960.00;5104565;28;20023;-71
2022/04/03 05:33:15;;;;;;;0.30;0.30;;;;;;;5.48;50.43;92959.59;5104489;28;20036;-71
2022/04/03 05:35:42;;;;;;;0.82;0.40;;;;;;;5.49;50.11;92953.22;5104222;28;20095;-71
2022/04/03 05:38:07;;;;;;;0.80;0.40;;;;;;;5.52;49.83;92953.41;5103779;28;20318;-71
2022/04/03 05:40:33;;;;;;;1.83;0.52;;;;;;;5.58;49.45;92943.50;5104187;28;20103;-71
2022/04/03 05:42:59;;;;;;;1.98;0.50;;;;;;;5.68;49.56;92945.88;5103993;28;20031;-71
2022/04/03 05:45:25;;;;;;;0.68;0.38;;;;;;;5.80;49.05;92954.00;5103932;28;20024;-71
2022/04/03 05:47:51;;;;;;;2.83;0.60;;;;;;;5.93;47.77;92957.63;5103982;28;20028;-71
2022/04/03 05:50:16;;;;;;;0.30;0.30;;;;;;;6.05;49.02;92974.84;5103946;28;20229;-71
2022/04/03 05:52:45;;;;;;;2.85;0.35;;;;;;;6.01;47.02;92961.44;5103859;28;20020;-71
2022/04/03 05:55:11;;;;;;;2.88;0.65;;;;;;;6.01;47.90;92978.06;5103647;28;20056;-71
2022/04/03 05:57:38;;;;;;;0.52;0.40;;;;;;;6.07;48.08;92989.31;5103804;28;20043;-71
2022/04/03 06:00:05;;;;;;;0.70;0.50;;;;;;;6.07;48.25;92978.72;5103567;28;20030;-71
2022/04/03 06:03:00;;;;;;;1.65;0.47;;;;;;;5.99;47.11;92974.94;5103565;28;20020;-70
2022/04/03 06:05:29;;;;;;;0.40;0.30;;;;;;;5.97;48.05;92986.94;5103262;28;20040;-71
2022/04/03 06:07:55;;;;;;;0.90;0.50;;;;;;;5.94;47.12;92975.06;5103471;28;20256;-71
2022/04/03 06:10:22;;;;;;;1.05;0.47;;;;;;;6.05;48.73;92999.41;5103795;28;20032;-71
2022/04/03 06:12:56;;;;;;;1.75;0.50;;;;;;;6.03;47.17;92999.72;5103443;28;20322;-71
2022/04/03 06:15:22;;;;;;;1.90;0.40;;;;;;;6.17;48.41;92999.63;5103547;28;20211;-71
2022/04/03 06:17:49;;;;;;;2.53;0.40;;;;;;;6.26;47.78;92993.56;5103726;28;20028;-71
2022/04/03 06:20:14;;;;;;;3.40;0.40;;;;;;;6.46;47.96;92997.53;5103411;28;20282;-71
2022/04/03 06:22:39;;;;;;;2.28;0.52;;;;;;;6.54;48.04;93005.47;5103438;28;20028;-71
2022/04/03 06:25:07;;;;;;;4.40;0.68;;;;;;;6.55;47.96;92993.78;5103392;28;20031;-71
2022/04/03 06:27:33;;;;;;;0.82;0.40;;;;;;;6.63;48.12;92998.34;5103131;28;20251;-71
2022/04/03 06:29:58;;;;;;;2.85;0.50;;;;;;;6.72;47.59;93003.66;5103376;28;20218;-72
2022/04/03 06:32:24;;;;;;;1.88;0.80;;;;;;;6.76;47.04;93006.47;5103335;28;20027;-72
2022/04/03 06:34:49;;;;;;;0.98;0.57;;;;;;;6.59;46.84;93000.06;5102117;28;20318;-72
2022/04/03 06:37:15;;;;;;;1.10;0.60;;;;;;;6.57;46.72;93009.38;5103186;28;20091;-72
2022/04/03 06:39:40;;;;;;;1.90;0.75;;;;;;;6.34;47.33;93006.06;5102918;28;20032;-71
2022/04/03 06:42:07;;;;;;;0.57;0.47;;;;;;;6.43;48.72;93015.59;5103062;28;20356;-72
2022/04/03 06:44:33;;;;;;;1.15;0.30;;;;;;;6.53;48.33;93024.31;5103109;28;20074;-72
2022/04/03 06:47:00;;;;;;;3.55;0.95;;;;;;;6.50;48.01;93015.13;5102934;28;20043;-72
2022/04/03 06:49:28;;;;;;;0.45;0.30;;;;;;;6.46;48.69;93035.34;5102378;28;20106;-72
2022/04/03 06:51:54;;;;;;;0.55;0.40;;;;;;;6.51;48.57;93031.78;5101821;28;20036;-71
2022/04/03 06:54:19;;;;;;;2.50;0.60;;;;;;;6.48;48.60;93033.19;5102891;28;20043;-72
2022/04/03 06:56:44;;;;;;;3.03;0.52;;;;;;;6.40;49.77;93053.25;5102702;28;20368;-72
2022/04/03 06:59:10;;;;;;;1.20;0.40;;;;;;;6.52;48.80;93039.44;5102940;28;20321;-72
2022/04/03 07:01:35;;;;;;;2.33;0.47;;;;;;;6.52;49.70;93051.88;5102662;28;20023;-70
2022/04/03 07:04:00;;;;;;;2.40;0.50;;;;;;;6.50;49.19;93052.19;5102752;28;20259;-72
2022/04/03 07:06:26;;;;;;;1.75;0.50;;;;;;;6.49;49.26;93055.91;5102733;28;20028;-72
2022/04/03 07:08:53;;;;;;;1.17;0.45;;;;;;;6.46;50.15;93071.66;5102518;28;20065;-72
2022/04/03 07:11:19;;;;;;;2.05;0.40;;;;;;;6.38;53.86;93060.69;5102865;28;20020;-72
2022/04/03 07:13:44;;;;;;;1.27;0.40;;;;;;;6.36;53.29;93078.75;5102805;28;20028;-72
2022/04/03 07:16:10;;;;;;;0.47;0.43;;;;;;;6.35;52.70;93068.47;5102663;28;20102;-72
2022/04/03 07:18:36;;;;;;;1.15;0.45;;;;;;;6.31;52.30;93072.81;5102708;28;20028;-72
2022/04/03 07:21:01;;;;;;;0.60;0.35;;;;;;;6.27;53.08;93090.38;5102702;28;20093;-72
2022/04/03 07:23:27;;;;;;;1.23;0.43;;;;;;;6.14;51.61;93092.81;5102479;28;20081;-72
2022/04/03 07:25:53;;;;;;;0.85;0.40;;;;;;;6.13;51.77;93101.84;5102618;28;20112;-72
2022/04/03 07:28:18;;;;;;;1.02;0.38;;;;;;;6.09;52.97;93102.75;5102921;28;20058;-72
2022/04/03 07:30:43;;;;;;;0.38;0.25;;;;;;;5.98;51.72;93104.88;5102494;28;20058;-72
2022/04/03 07:33:09;;;;;;;0.57;0.43;;;;;;;5.97;51.93;93088.22;5102700;28;20020;-72
2022/04/03 07:35:35;;;;;;;1.33;0.45;;;;;;;5.95;53.75;93089.63;5101251;28;20020;-71
2022/04/03 07:38:00;;;;;;;0.75;0.50;;;;;;;6.17;51.70;93108.09;5102432;28;20020;-71
2022/04/03 07:40:26;;;;;;;0.85;0.30;;;;;;;6.15;50.51;93091.75;5102514;28;20012;-71
2022/04/03 07:42:52;;;;;;;1.10;0.40;;;;;;;6.29;50.10;93085.56;5102388;28;20020;-71
2022/04/03 07:45:18;;;;;;;1.23;0.80;;;;;;;6.50;50.74;93083.19;5102299;28;20032;-71
2022/04/03 07:47:48;;;;;;;1.10;0.50;;;;;;;6.56;49.08;93103.91;5102418;28;20058;-71
2022/04/03 07:50:15;;;;;;;0.32;0.20;;;;;;;6.37;49.91;93106.00;5101144;28;20023;-71
2022/04/03 07:52:41;;;;;;;1.42;0.47;;;;;;;6.48;50.30;93112.59;5102367;28;20036;-71
2022/04/03 07:55:10;;;;;;;0.22;0.20;;;;;;;6.25;49.87;93125.13;5102249;28;20059;-71
2022/04/03 07:57:37;;;;;;;0.60;0.40;;;;;;;6.38;51.62;93118.94;5102000;28;20020;-71
2022/04/03 08:00:07;;;;;;;0.35;0.28;;;;;;;6.60;51.65;93128.69;5102943;28;20044;-71
2022/04/03 08:02:34;;;;;;;5.32;0.50;;;;;;;6.74;49.73;93122.53;5105754;28;20031;-71
2022/04/03 08:05:00;;;;;;;0.95;0.45;;;;;;;6.92;51.36;93124.13;5105989;28;20024;-71
2022/04/03 08:07:45;;;;;;;1.15;0.57;;;;;;;6.76;50.68;93115.81;5105750;28;20046;-71
2022/04/03 08:10:15;;;;;;;1.85;0.30;;;;;;;6.78;49.34;93105.72;5105754;28;20215;-71
2022/04/03 08:12:43;;;;;;;0.77;0.40;;;;;;;6.87;48.61;93126.16;5105765;28;20042;-71
2022/04/03 08:15:12;;;;;;;1.20;0.45;;;;;;;6.96;50.45;93130.38;5105698;28;20091;-70
2022/04/03 08:17:39;;;;;;;1.25;0.30;;;;;;;6.88;48.02;93114.44;5105702;28;20386;-71
2022/04/03 08:20:18;;;;;;;1.45;0.50;;;;;;;6.93;47.43;93117.75;5105877;28;20035;-70
2022/04/03 08:22:45;;;;;;;1.13;0.60;;;;;;;6.94;49.15;93134.41;5105648;28;20226;-70
2022/04/03 08:25:12;;;;;;;0.50;0.40;;;;;;;6.75;48.01;93145.25;5105595;28;20029;-71
2022/04/03 08:27:42;;;;;;;0.40;0.40;;;;;;;6.89;48.79;93140.63;5105005;28;20076;-71
2022/04/03 08:30:10;;;;;;;0.80;0.50;;;;;;;6.87;49.00;93131.44;5104086;28;20095;-71
2022/04/03 08:32:35;;;;;;;1.38;0.50;;;;;;;6.92;48.66;93142.69;5105179;28;20031;-71
2022/04/03 08:35:01;;;;;;;1.45;0.60;;;;;;;7.15;48.29;93127.47;5105315;28;20233;-71
2022/04/03 08:37:28;;;;;;;1.23;0.43;;;;;;;7.48;48.85;93123.59;5105478;28;20024;-71
2022/04/03 08:39:53;;;;;;;0.47;0.45;;;;;;;7.55;46.90;93130.00;5105303;28;20036;-71
2022/04/03 08:42:19;;;;;;;2.13;0.38;;;;;;;7.41;46.28;93137.34;5105598;28;20031;-71
2022/04/03 08:44:44;;;;;;;6.18;0.40;;;;;;;7.52;48.04;93132.50;5105090;28;20024;-71
2022/04/03 08:47:15;;;;;;;0.73;0.47;;;;;;;7.63;46.71;93133.75;5105162;28;20020;-71
2022/04/03 08:49:41;;;;;;;1.40;0.60;;;;;;;7.63;47.04;93139.84;5105243;28;20035;-72
2022/04/03 08:52:09;;;;;;;0.70;0.30;;;;;;;7.76;46.19;93129.41;5105088;28;20273;-71
2022/04/03 08:54:37;;;;;;;0.68;0.40;;;;;;;7.72;46.12;93137.19;5104967;28;20020;-72
2022/04/03 08:57:02;;;;;;;0.93;0.50;;;;;;;7.76;45.19;93134.69;5105090;28;20020;-72
2022/04/03 08:59:28;;;;;;;0.20;0.20;;;;;;;7.88;47.21;93142.81;5104817;28;20329;-72
2022/04/03 09:01:53;;;;;;;0.70;0.35;;;;;;;8.10;45.02;93149.00;5104744;28;20244;-71
2022/04/03 09:04:20;;;;;;;0.73;0.32;;;;;;;8.00;42.80;93148.25;5105045;28;20087;-71
2022/04/03 09:06:59;;;;;;;1.50;0.50;;;;;;;7.97;44.05;93148.09;5104816;28;20065;-71
2022/04/03 09:09:27;;;;;;;0.57;0.40;;;;;;;8.08;43.00;93164.47;5104885;28;20027;-71
2022/04/03 09:12:16;;;;;;;0.93;0.35;;;;;;;8.28;42.46;93157.75;5104092;28;20061;-71
2022/04/03 09:14:52;;;;;;;4.10;0.50;;;;;;;8.43;42.74;93163.38;5104650;28;20036;-71
2022/04/03 09:17:33;;;;;;;0.82;0.22;;;;;;;8.42;42.78;93147.75;5104618;28;20027;-72
2022/04/03 09:20:12;;;;;;;1.02;0.40;;;;;;;8.51;43.07;93151.16;5104751;28;20023;-71
2022/04/03 09:22:39;;;;;;;1.45;0.50;;;;;;;8.53;41.49;93148.97;5104480;28;20028;-71
2022/04/03 09:25:06;;;;;;;1.58;0.52;;;;;;;8.29;42.22;93178.66;5104528;28;20050;-72
2022/04/03 09:27:34;;;;;;;0.30;0.30;;;;;;;8.31;42.45;93157.91;5104346;28;20047;-72
2022/04/03 09:30:07;;;;;;;1.13;0.50;;;;;;;8.37;40.22;93161.19;5104292;28;20095;-72
2022/04/03 09:32:45;;;;;;;1.58;0.50;;;;;;;8.29;41.76;93138.06;5104050;28;20096;-70
2022/04/03 09:35:11;;;;;;;2.38;0.77;;;;;;;8.47;40.90;93142.28;5104156;28;20035;-70
2022/04/03 09:37:37;;;;;;;3.50;0.70;;;;;;;8.73;42.08;93166.09;5104306;28;20090;-71
2022/04/03 09:40:03;;;;;;;1.10;0.40;;;;;;;8.81;40.13;93153.88;5103971;28;20039;-70
2022/04/03 09:42:29;;;;;;;0.65;0.30;;;;;;;9.08;40.01;93163.31;5104239;28;20079;-71
2022/04/03 09:44:55;;;;;;;0.90;0.40;;;;;;;9.37;40.02;93180.38;5102705;28;20325;-70
2022/04/03 09:47:26;;;;;;;2.83;1.08;;;;;;;9.44;43.84;93186.75;5103964;28;20099;-71
2022/04/03 09:49:57;;;;;;;1.77;0.60;;;;;;;9.41;44.58;93173.31;5103994;28;20225;-71
2022/04/03 09:52:47;;;;;;;0.90;0.60;;;;;;;9.43;39.87;93179.84;5103961;28;20115;-71
2022/04/03 09:55:13;;;;;;;2.05;0.52;;;;;;;9.38;39.43;93169.41;5103770;28;20052;-71
2022/04/03 09:57:38;;;;;;;1.40;0.40;;;;;;;9.53;38.46;93188.56;5103610;28;20031;-71
2022/04/03 10:00:05;;;;;;;0.88;0.47;;;;;;;9.54;37.93;93166.94;5103765;28;20080;-71
2022/04/03 10:02:32;;;;;;;0.20;0.20;;;;;;;9.62;39.99;93182.09;5103734;28;20069;-71
2022/04/03 10:04:58;;;;;;;0.63;0.40;;;;;;;9.72;37.32;93180.16;5103598;28;20191;-71
2022/04/03 10:07:24;;;;;;;0.85;0.57;;;;;;;9.68;39.36;93185.34;5103589;28;20030;-71
2022/04/03 10:09:52;;;;;;;3.25;0.63;;;;;;;9.48;36.78;93176.22;5103354;28;20111;-71
2022/04/03 10:12:20;;;;;;;1.75;0.60;;;;;;;9.47;38.07;93189.88;5103264;28;20310;-71
2022/04/03 10:14:49;;;;;;;2.78;0.60;;;;;;;9.41;38.45;93195.34;5103335;28;20024;-71
2022/04/03 10:17:16;;;;;;;0.98;0.50;;;;;;;9.48;38.27;93191.41;5103484;28;20034;-70
2022/04/03 10:19:42;;;;;;;1.90;0.63;;;;;;;9.56;36.26;93178.03;5103275;28;20032;-71
2022/04/03 10:22:16;;;;;;;4.25;0.95;;;;;;;9.82;38.31;93185.09;5103457;28;20077;-71
2022/04/03 10:24:46;;;;;;;0.38;0.30;;;;;;;9.94;37.51;93187.03;5101201;28;20035;-71
2022/04/03 10:27:19;;;;;;;3.00;1.00;;;;;;;9.64;43.07;93221.69;5103295;28;20237;-71
2022/04/03 10:29:48;;;;;;;3.78;1.50;;;;;;;9.31;45.25;93218.88;5103218;28;20027;-71
2022/04/03 10:32:27;;;;;;;2.75;1.02;;;;;;;9.16;44.53;93218.31;5103034;28;20020;-71
2022/04/03 10:34:56;;;;;;;4.00;1.10;;;;;;;8.99;45.77;93197.88;5103168;28;20239;-70
2022/04/03 10:37:37;;;;;;;1.65;0.93;;;;;;;9.01;45.83;93208.22;5103017;28;20020;-71
2022/04/03 10:40:13;;;;;;;3.75;1.55;;;;;;;8.98;45.66;93217.59;5103043;28;20191;-72
2022/04/03 10:42:53;;;;;;;4.60;1.23;;;;;;;8.96;45.18;93203.84;5103038;28;20069;-71
2022/04/03 10:45:25;;;;;;;3.28;1.30;;;;;;;9.17;45.92;93203.91;5103112;28;20027;-71
2022/04/03 10:47:52;;;;;;;2.95;1.58;;;;;;;9.29;46.71;93195.25;5102995;28;20131;-71
2022/04/03 10:50:17;;;;;;;4.47;1.90;;;;;;;9.48;45.38;93204.72;5103034;28;20020;-71
2022/04/03 10:52:43;;;;;;;4.97;1.60;;;;;;;9.60;45.21;93204.78;5102589;28;20337;-71
2022/04/03 10:55:29;;;;;;;5.90;1.50;;;;;;;9.74;43.88;93225.84;5102778;28;20055;-72
2022/04/03 10:58:04;;;;;;;2.45;1.08;;;;;;;9.35;45.08;93225.91;5101520;28;20077;-71
2022/04/03 11:00:32;;;;;;;2.40;1.10;;;;;;;8.91;45.78;93245.75;5102472;28;20095;-71
2022/04/03 11:02:58;;;;;;;1.55;0.90;;;;;;;8.54;47.88;93235.50;5102773;28;20065;-71
2022/04/03 11:05:29;;;;;;;4.22;1.48;;;;;;;8.37;49.63;93230.97;5102880;28;20103;-72
2022/04/03 11:08:00;;;;;;;5.95;1.50;;;;;;;8.32;49.78;93233.78;5102821;28;20024;-70
2022/04/03 11:10:56;;;;;;;2.88;1.48;;;;;;;8.23;50.38;93231.16;5102914;28;20028;-72
2022/04/03 11:13:31;;;;;;;3.30;1.15;;;;;;;8.15;49.98;93226.63;5102573;28;20027;-72
2022/04/03 11:16:01;;;;;;;6.22;1.40;;;;;;;8.09;51.31;93230.53;5102849;28;20035;-70
2022/04/03 11:18:33;;;;;;;3.03;1.58;;;;;;;8.16;52.72;93227.41;5102482;28;20210;-70
2022/04/03 11:21:08;;;;;;;4.97;1.45;;;;;;;8.19;52.25;93214.28;5102636;28;20031;-71
2022/04/03 11:23:39;;;;;;;3.30;1.40;;;;;;;8.15;51.82;93217.88;5101353;28;20036;-70
2022/04/03 11:26:06;;;;;;;2.15;1.05;;;;;;;8.21;51.66;93217.41;5102521;28;20020;-70
2022/04/03 11:28:34;;;;;;;3.50;1.08;;;;;;;8.33;49.33;93218.66;5102657;28;20051;-70
2022/04/03 11:31:00;;;;;;;7.68;1.27;;;;;;;8.37;49.25;93230.97;5102385;28;20066;-71
2022/04/03 11:33:27;;;;;;;4.38;1.70;;;;;;;8.45;50.21;93232.09;5102434;28;20023;-70
2022/04/03 11:35:53;;;;;;;8.23;2.03;;;;;;;8.43;50.14;93239.59;5104792;28;20020;-71
2022/04/03 11:38:19;;;;;;;3.85;2.03;;;;;;;8.36;49.78;93255.19;5106618;28;20024;-71
2022/04/03 11:40:47;;;;;;;3.75;1.75;;;;;;;8.12;50.33;93256.47;5106732;28;20019;-70
2022/04/03 11:43:18;;;;;;;6.60;1.52;;;;;;;7.97;51.51;93262.22;5106423;28;20027;-70